• Join FlightAware (Why Join?)
  • Login
  • US Flag 
02:05PM EDT


 

Airport Tracker/Info


-or-


 

Live Flight TrackerFlight Track Log ✈ N182Q ✈ 21-May-2012 ✈ KLRJ

Flight Track Log - Related Links

Times and Time Zones

All times are in EDT time to prevent confusion due to time zone crossing. See the N182Q flight status page for this flight to view local times or setup timezone preferences in your user account.

Time Position Orientation Groundspeed Altitude Reporting Facility
EDT Latitude Longitude Course Direction KTS MPH feet Rate Location/Type
10:27AM -19.5366 -159.4605 50° Northeast  Level Estimated
10:28AM 35.8970 -88.9514 322° Northwest  Level FlightAware Approximate
10:29AM 35.9211 -88.9750 322° Northwest  Level FlightAware Approximate
10:30AM 35.9455 -88.9982 322° Northwest  Level FlightAware Approximate
10:31AM 35.9699 -89.0214 322° Northwest  Level FlightAware Approximate
10:32AM 35.9943 -89.0446 322° Northwest  Level FlightAware Approximate
10:33AM 36.0186 -89.0678 322° Northwest  Level FlightAware Approximate
10:34AM 36.0430 -89.0911 322° Northwest  Level FlightAware Approximate
10:35AM 36.0673 -89.1143 322° Northwest  Level FlightAware Approximate
10:36AM 36.0916 -89.1377 322° Northwest  Level FlightAware Approximate
10:37AM 36.1158 -89.1611 322° Northwest  Level FlightAware Approximate
10:38AM 36.1401 -89.1846 322° Northwest  Level FlightAware Approximate
10:39AM 36.1643 -89.2080 322° Northwest  Level FlightAware Approximate
10:40AM 36.1886 -89.2315 322° Northwest  Level FlightAware Approximate
10:41AM 36.2128 -89.2550 322° Northwest  Level FlightAware Approximate
10:42AM 36.2371 -89.2785 322° Northwest  Level FlightAware Approximate
10:43AM 36.2613 -89.3020 322° Northwest  Level FlightAware Approximate
10:44AM 36.2854 -89.3256 322° Northwest  Level FlightAware Approximate
10:45AM 36.3096 -89.3493 322° Northwest  Level FlightAware Approximate
10:46AM 36.3337 -89.3730 322° Northwest  Level FlightAware Approximate
10:47AM 36.3578 -89.3967 322° Northwest  Level FlightAware Approximate
10:48AM 36.3819 -89.4204 322° Northwest  Level FlightAware Approximate
10:49AM 36.4061 -89.4442 322° Northwest  Level FlightAware Approximate
10:50AM 36.4302 -89.4679 322° Northwest  Level FlightAware Approximate
10:51AM 36.4543 -89.4917 322° Northwest  Level FlightAware Approximate
10:52AM 36.4784 -89.5154 322° Northwest  Level FlightAware Approximate
10:53AM 36.5025 -89.5392 322° Northwest  Level FlightAware Approximate
10:54AM 36.5266 -89.5630 322° Northwest  Level FlightAware Approximate
10:55AM 36.5507 -89.5869 322° Northwest  Level FlightAware Approximate
10:56AM 36.5747 -89.6107 322° Northwest  Level FlightAware Approximate
10:57AM 36.5988 -89.6346 321° Northwest  Level FlightAware Approximate
10:58AM 36.6229 -89.6584 321° Northwest  Level FlightAware Approximate
10:59AM 36.6469 -89.6823 321° Northwest  Level FlightAware Approximate
11:00AM 36.6710 -89.7062 321° Northwest  Level FlightAware Approximate
11:01AM 36.6951 -89.7301 321° Northwest  Level FlightAware Approximate
11:02AM 36.7191 -89.7540 321° Northwest  Level FlightAware Approximate
11:03AM 36.7432 -89.7780 321° Northwest  Level FlightAware Approximate
11:04AM 36.7672 -89.8019 321° Northwest  Level FlightAware Approximate
11:05AM 36.7913 -89.8259 321° Northwest  Level FlightAware Approximate
11:06AM 36.8153 -89.8499 321° Northwest  Level FlightAware Approximate
11:07AM 36.8393 -89.8739 321° Northwest  Level FlightAware Approximate
11:08AM 36.8633 -89.8979 321° Northwest  Level FlightAware Approximate
11:09AM 36.8874 -89.9219 321° Northwest  Level FlightAware Approximate
11:10AM 36.9114 -89.9460 321° Northwest  Level FlightAware Approximate
11:11AM 36.9354 -89.9700 321° Northwest  Level FlightAware Approximate
11:12AM 36.9594 -89.9941 321° Northwest  Level FlightAware Approximate
11:13AM 36.9834 -90.0182 321° Northwest  Level FlightAware Approximate
11:14AM 37.0074 -90.0423 321° Northwest  Level FlightAware Approximate
11:15AM 37.0314 -90.0664 321° Northwest  Level FlightAware Approximate
11:16AM 37.0554 -90.0906 321° Northwest  Level FlightAware Approximate
11:17AM 37.0793 -90.1147 321° Northwest  Level FlightAware Approximate
11:18AM 37.1033 -90.1389 321° Northwest  Level FlightAware Approximate
11:19AM 37.1273 -90.1631 321° Northwest  Level FlightAware Approximate
11:20AM 37.1513 -90.1873 321° Northwest  Level FlightAware Approximate
11:21AM 37.1752 -90.2115 321° Northwest  Level FlightAware Approximate
11:22AM 37.2003 -90.2369 321° Northwest  Level FlightAware Approximate
11:23AM 37.2254 -90.2623 321° Northwest  Level FlightAware Approximate
11:24AM 37.2505 -90.2877 321° Northwest  Level FlightAware Approximate
11:25AM 37.2756 -90.3132 321° Northwest  Level FlightAware Approximate
11:26AM 37.3007 -90.3386 321° Northwest  Level FlightAware Approximate
11:27AM 37.3258 -90.3641 321° Northwest  Level FlightAware Approximate
11:28AM 37.3510 -90.3898 321° Northwest  Level FlightAware Approximate
11:29AM 37.3762 -90.4154 321° Northwest  Level FlightAware Approximate
11:30AM 37.4014 -90.4411 321° Northwest  Level FlightAware Approximate
11:31AM 37.4266 -90.4668 321° Northwest  Level FlightAware Approximate
11:32AM 37.4523 -90.4930 321° Northwest  Level FlightAware Approximate
11:33AM 37.4780 -90.5192 321° Northwest  Level FlightAware Approximate
11:34AM 37.5036 -90.5454 321° Northwest  Level FlightAware Approximate
11:35AM 37.5293 -90.5716 321° Northwest  Level FlightAware Approximate
11:36AM 37.5549 -90.5979 321° Northwest  Level FlightAware Approximate
11:37AM 37.5805 -90.6242 321° Northwest  Level FlightAware Approximate
11:38AM 37.6062 -90.6505 321° Northwest  Level FlightAware Approximate
11:39AM 37.6318 -90.6768 321° Northwest  Level FlightAware Approximate
11:40AM 37.6574 -90.7031 321° Northwest  Level FlightAware Approximate
11:41AM 37.6830 -90.7294 321° Northwest  Level FlightAware Approximate
11:42AM 37.7087 -90.7557 321° Northwest  Level FlightAware Approximate
11:43AM 37.7343 -90.7820 321° Northwest  Level FlightAware Approximate
11:44AM 37.7600 -90.8083 321° Northwest  Level FlightAware Approximate
11:45AM 37.7856 -90.8346 321° Northwest  Level FlightAware Approximate
11:46AM 37.8112 -90.8610 321° Northwest  Level FlightAware Approximate
11:47AM 37.8368 -90.8874 321° Northwest  Level FlightAware Approximate
11:48AM 37.8625 -90.9138 321° Northwest  Level FlightAware Approximate
11:49AM 37.8881 -90.9402 321° Northwest  Level FlightAware Approximate
11:50AM 37.9134 -90.9664 321° Northwest  Level FlightAware Approximate
11:51AM 37.9387 -90.9926 321° Northwest  Level FlightAware Approximate
11:52AM 37.9641 -91.0188 321° Northwest  Level FlightAware Approximate
11:53AM 37.9894 -91.0450 321° Northwest  Level FlightAware Approximate
11:54AM 38.0149 -91.0714 321° Northwest  Level FlightAware Approximate
11:55AM 38.0404 -91.0978 321° Northwest  Level FlightAware Approximate
11:56AM 38.0659 -91.1243 321° Northwest  Level FlightAware Approximate
11:57AM 38.0914 -91.1508 321° Northwest  Level FlightAware Approximate
11:58AM 38.1168 -91.1773 321° Northwest  Level FlightAware Approximate
11:59AM 38.1423 -91.2038 321° Northwest  Level FlightAware Approximate
12:00PM 38.1678 -91.2304 321° Northwest  Level FlightAware Approximate
12:01PM 38.1932 -91.2569 321° Northwest  Level FlightAware Approximate
12:02PM 38.2187 -91.2835 321° Northwest  Level FlightAware Approximate
12:03PM 38.2441 -91.3101 321° Northwest  Level FlightAware Approximate
12:04PM 38.2696 -91.3367 321° Northwest  Level FlightAware Approximate
12:05PM 38.2950 -91.3633 321° Northwest  Level FlightAware Approximate
12:06PM 38.3205 -91.3900 320° Northwest  Level FlightAware Approximate
12:07PM 38.3463 -91.4172 322° Northwest  Level FlightAware Approximate
12:08PM 38.3723 -91.4435 322° Northwest  Level FlightAware Approximate
12:09PM 38.3984 -91.4697 322° Northwest  Level FlightAware Approximate
12:10PM 38.4244 -91.4960 322° Northwest  Level FlightAware Approximate
12:11PM 38.4504 -91.5223 322° Northwest  Level FlightAware Approximate
12:12PM 38.4765 -91.5486 322° Northwest  Level FlightAware Approximate
12:13PM 38.5025 -91.5750 322° Northwest  Level FlightAware Approximate
12:14PM 38.5285 -91.6013 322° Northwest  Level FlightAware Approximate
12:15PM 38.5545 -91.6277 322° Northwest  Level FlightAware Approximate
12:16PM 38.5808 -91.6544 322° Northwest  Level FlightAware Approximate
12:17PM 38.6072 -91.6812 322° Northwest  Level FlightAware Approximate
12:18PM 38.6335 -91.7080 322° Northwest  Level FlightAware Approximate
12:19PM 38.6598 -91.7347 322° Northwest  Level FlightAware Approximate
12:20PM 38.6861 -91.7616 321° Northwest  Level FlightAware Approximate
12:21PM 38.7124 -91.7884 321° Northwest  Level FlightAware Approximate
12:22PM 38.7388 -91.8152 321° Northwest  Level FlightAware Approximate
12:23PM 38.7650 -91.8421 321° Northwest  Level FlightAware Approximate
12:24PM 38.7913 -91.8690 321° Northwest  Level FlightAware Approximate
12:25PM 38.8176 -91.8959 321° Northwest  Level FlightAware Approximate
12:26PM 38.8439 -91.9228 321° Northwest  Level FlightAware Approximate
12:27PM 38.8700 -91.9501 321° Northwest  Level FlightAware Approximate
12:28PM 38.8960 -91.9774 321° Northwest  Level FlightAware Approximate
12:29PM 38.9221 -92.0047 321° Northwest  Level FlightAware Approximate
12:30PM 38.9483 -92.0322 321° Northwest  Level FlightAware Approximate
12:31PM 38.9745 -92.0597 321° Northwest  Level FlightAware Approximate
12:32PM 39.0007 -92.0873 321° Northwest  Level FlightAware Approximate
12:33PM 39.0269 -92.1148 321° Northwest  Level FlightAware Approximate
12:34PM 39.0531 -92.1424 321° Northwest  Level FlightAware Approximate
12:35PM 39.0793 -92.1700 321° Northwest  Level FlightAware Approximate
12:36PM 39.1054 -92.1976 321° Northwest  Level FlightAware Approximate
12:37PM 39.1316 -92.2253 321° Northwest  Level FlightAware Approximate
12:38PM 39.1577 -92.2529 321° Northwest  Level FlightAware Approximate
12:39PM 39.1839 -92.2806 321° Northwest  Level FlightAware Approximate
12:40PM 39.2100 -92.3083 321° Northwest  Level FlightAware Approximate
12:41PM 39.2362 -92.3360 321° Northwest  Level FlightAware Approximate
12:42PM 39.2623 -92.3637 321° Northwest  Level FlightAware Approximate
12:43PM 39.2884 -92.3915 321° Northwest  Level FlightAware Approximate
12:44PM 39.3145 -92.4193 321° Northwest  Level FlightAware Approximate
12:45PM 39.3410 -92.4474 321° Northwest  Level FlightAware Approximate
12:46PM 39.3674 -92.4756 320° Northwest  Level FlightAware Approximate
12:47PM 39.3938 -92.5038 320° Northwest  Level FlightAware Approximate
12:48PM 39.4202 -92.5320 320° Northwest  Level FlightAware Approximate
12:49PM 39.4467 -92.5602 320° Northwest  Level FlightAware Approximate
12:50PM 39.4731 -92.5885 320° Northwest  Level FlightAware Approximate
12:51PM 39.4995 -92.6168 320° Northwest  Level FlightAware Approximate
12:52PM 39.5258 -92.6451 320° Northwest  Level FlightAware Approximate
12:53PM 39.5521 -92.6736 320° Northwest  Level FlightAware Approximate
12:54PM 39.5784 -92.7021 320° Northwest  Level FlightAware Approximate
12:55PM 39.6046 -92.7307 320° Northwest  Level FlightAware Approximate
12:56PM 39.6309 -92.7592 320° Northwest  Level FlightAware Approximate
12:57PM 39.6571 -92.7878 320° Northwest  Level FlightAware Approximate
12:58PM 39.6833 -92.8164 320° Northwest  Level FlightAware Approximate
12:59PM 39.7095 -92.8451 320° Northwest  Level FlightAware Approximate
01:00PM 39.7358 -92.8737 320° Northwest  Level FlightAware Approximate
01:01PM 39.7620 -92.9024 320° Northwest  Level FlightAware Approximate
01:02PM 39.7882 -92.9311 320° Northwest  Level FlightAware Approximate
01:03PM 39.8144 -92.9598 320° Northwest  Level FlightAware Approximate
01:04PM 39.8405 -92.9886 320° Northwest  Level FlightAware Approximate
01:05PM 39.8667 -93.0173 320° Northwest  Level FlightAware Approximate
01:06PM 39.8929 -93.0461 320° Northwest  Level FlightAware Approximate
01:07PM 39.9191 -93.0750 320° Northwest  Level FlightAware Approximate
01:08PM 39.9452 -93.1038 320° Northwest  Level FlightAware Approximate
01:09PM 39.9714 -93.1326 319° Northwest  Level FlightAware Approximate
01:10PM 39.9974 -93.1617 319° Northwest  Level FlightAware Approximate
01:11PM 40.0234 -93.1907 319° Northwest  Level FlightAware Approximate
01:12PM 40.0502 -93.2207 319° Northwest  Level FlightAware Approximate
01:13PM 40.0770 -93.2507 319° Northwest  Level FlightAware Approximate
01:14PM 40.1038 -93.2807 319° Northwest  Level FlightAware Approximate
01:15PM 40.1306 -93.3107 319° Northwest  Level FlightAware Approximate
01:16PM 40.1573 -93.3407 319° Northwest  Level FlightAware Approximate
01:17PM 40.1841 -93.3708 319° Northwest  Level FlightAware Approximate
01:18PM 40.2108 -93.4009 319° Northwest  Level FlightAware Approximate
01:19PM 40.2376 -93.4310 319° Northwest  Level FlightAware Approximate
01:20PM 40.2643 -93.4611 319° Northwest  Level FlightAware Approximate
01:21PM 40.2910 -93.4913 319° Northwest  Level FlightAware Approximate
01:22PM 40.3177 -93.5214 319° Northwest  Level FlightAware Approximate
01:23PM 40.3444 -93.5517 319° Northwest  Level FlightAware Approximate
01:24PM 40.3711 -93.5819 319° Northwest  Level FlightAware Approximate
01:25PM 40.3978 -93.6121 319° Northwest  Level FlightAware Approximate
01:26PM 40.4245 -93.6424 319° Northwest  Level FlightAware Approximate
01:27PM 40.4512 -93.6727 319° Northwest  Level FlightAware Approximate
01:28PM 40.4778 -93.7030 319° Northwest  Level FlightAware Approximate
01:29PM 40.5045 -93.7334 319° Northwest  Level FlightAware Approximate
01:30PM 40.5312 -93.7638 319° Northwest  Level FlightAware Approximate
01:31PM 40.5578 -93.7942 319° Northwest  Level FlightAware Approximate
01:32PM 40.5844 -93.8246 319° Northwest  Level FlightAware Approximate
01:33PM 40.6110 -93.8550 319° Northwest  Level FlightAware Approximate
01:34PM 40.6377 -93.8855 319° Northwest  Level FlightAware Approximate
01:35PM 40.6642 -93.9162 319° Northwest  Level FlightAware Approximate
01:36PM 40.6906 -93.9469 319° Northwest  Level FlightAware Approximate
01:37PM 40.7171 -93.9776 319° Northwest  Level FlightAware Approximate
01:38PM 40.7436 -94.0084 319° Northwest  Level FlightAware Approximate
01:39PM 40.7700 -94.0391 319° Northwest  Level FlightAware Approximate
01:40PM 40.7965 -94.0699 319° Northwest  Level FlightAware Approximate
01:41PM 40.8229 -94.1008 319° Northwest  Level FlightAware Approximate
01:42PM 40.8493 -94.1316 319° Northwest  Level FlightAware Approximate
01:43PM 40.8757 -94.1625 319° Northwest  Level FlightAware Approximate
01:44PM 40.9021 -94.1934 318° Northwest  Level FlightAware Approximate
01:45PM 40.9286 -94.2243 318° Northwest  Level FlightAware Approximate
01:46PM 40.9549 -94.2553 318° Northwest  Level FlightAware Approximate
01:47PM 40.9813 -94.2863 318° Northwest  Level FlightAware Approximate
01:48PM 41.0077 -94.3173 318° Northwest  Level FlightAware Approximate
01:49PM 41.0348 -94.3491 318° Northwest  Level FlightAware Approximate
01:50PM 41.0618 -94.3810 318° Northwest  Level FlightAware Approximate
01:51PM 41.0881 -94.4120 318° Northwest  Level FlightAware Approximate
01:52PM 41.1144 -94.4431 318° Northwest  Level FlightAware Approximate
01:53PM 41.1415 -94.4751 318° Northwest  Level FlightAware Approximate
01:54PM 41.1686 -94.5071 318° Northwest  Level FlightAware Approximate
01:55PM 41.1957 -94.5392 318° Northwest  Level FlightAware Approximate
01:56PM 41.2227 -94.5713 318° Northwest  Level FlightAware Approximate
01:57PM 41.2497 -94.6034 318° Northwest  Level FlightAware Approximate
01:58PM 41.2768 -94.6355 323° Northwest  Level FlightAware Approximate
01:59PM 41.3019 -94.6609 323° Northwest  Level FlightAware Approximate
02:00PM 41.3271 -94.6863 323° Northwest  Level FlightAware Approximate
02:01PM 41.3523 -94.7117 323° Northwest  Level FlightAware Approximate
02:02PM 41.3811 -94.7401 323° Northwest  Level FlightAware Approximate
02:03PM 41.4098 -94.7686 323° Northwest  Level FlightAware Approximate
02:04PM 41.4386 -94.7971 323° Northwest  Level FlightAware Approximate
02:05PM 41.4674 -94.8256 323° Northwest  Level FlightAware Approximate
02:06PM 41.4961 -94.8541 323° Northwest  Level FlightAware Approximate
02:07PM 41.5249 -94.8827 323° Northwest  Level FlightAware Approximate
02:08PM 41.5536 -94.9113 323° Northwest  Level FlightAware Approximate
02:09PM 41.5824 -94.9399 323° Northwest  Level FlightAware Approximate
02:10PM 41.6111 -94.9686 323° Northwest  Level FlightAware Approximate
02:11PM 41.6398 -94.9972 323° Northwest  Level FlightAware Approximate
02:12PM 41.6685 -95.0259 323° Northwest  Level FlightAware Approximate
02:13PM 41.6972 -95.0546 323° Northwest  Level FlightAware Approximate
02:14PM 41.7259 -95.0834 323° Northwest  Level FlightAware Approximate
02:15PM 41.7546 -95.1121 323° Northwest  Level FlightAware Approximate
02:16PM 41.7833 -95.1409 323° Northwest  Level FlightAware Approximate
02:17PM 41.8120 -95.1697 323° Northwest  Level FlightAware Approximate
02:18PM 41.8406 -95.1986 323° Northwest  Level FlightAware Approximate
02:19PM 41.8693 -95.2274 323° Northwest  Level FlightAware Approximate
02:20PM 41.8980 -95.2563 323° Northwest  Level FlightAware Approximate
02:21PM 41.9266 -95.2853 323° Northwest  Level FlightAware Approximate
02:22PM 41.9552 -95.3142 323° Northwest  Level FlightAware Approximate
02:23PM 41.9839 -95.3432 316° Northwest  Level FlightAware Approximate
02:24PM 42.0097 -95.3764 324° Northwest  Level FlightAware Approximate
02:25PM 42.0388 -95.4045 323° Northwest  Level FlightAware Approximate
02:26PM 42.0676 -95.4332 323° Northwest  Level FlightAware Approximate
02:27PM 42.0964 -95.4620 323° Northwest  Level FlightAware Approximate
02:28PM 42.1251 -95.4908 323° Northwest  Level FlightAware Approximate
02:29PM 42.1539 -95.5196 323° Northwest  Level FlightAware Approximate
02:30PM 42.1827 -95.5484 323° Northwest  Level FlightAware Approximate
02:31PM 42.2114 -95.5772 323° Northwest  Level FlightAware Approximate
02:32PM 42.2402 -95.6061 323° Northwest  Level FlightAware Approximate
02:33PM 42.2690 -95.6350 323° Northwest  Level FlightAware Approximate
02:34PM 42.2977 -95.6639 323° Northwest  Level FlightAware Approximate
02:35PM 42.3264 -95.6929 323° Northwest  Level FlightAware Approximate
02:36PM 42.3550 -95.7222 321° Northwest  Level FlightAware Approximate
02:37PM 42.3827 -95.7529 321° Northwest  Level Estimated
02:38PM 42.7667 -96.1833 321° Northwest  Level FlightAware Approximate